createdAt,value
2022-11-10T00:01:09.766Z,95530.59
2022-11-10T00:03:38.117Z,95533.50
2022-11-10T00:06:06.632Z,95537.91
2022-11-10T00:08:33.802Z,95527.44
2022-11-10T00:11:04.790Z,95543.19
2022-11-10T00:13:33.138Z,95536.47
2022-11-10T00:16:01.997Z,95537.94
2022-11-10T00:18:28.458Z,95539.22
2022-11-10T00:20:55.082Z,95538.31
2022-11-10T00:23:21.783Z,95539.59
2022-11-10T00:25:48.416Z,95553.28
2022-11-10T00:28:14.881Z,95554.59
2022-11-10T00:30:44.553Z,95561.44
2022-11-10T00:33:13.189Z,95562.94
2022-11-10T00:35:39.642Z,95552.31
2022-11-10T00:38:06.593Z,95558.81
2022-11-10T00:40:33.379Z,95554.66
2022-11-10T00:42:59.840Z,95567.34
2022-11-10T00:45:26.299Z,95569.44
2022-11-10T00:47:52.829Z,95561.00
2022-11-10T00:50:19.531Z,95565.31
2022-11-10T00:52:46.004Z,95564.00
2022-11-10T00:55:12.669Z,95572.41
2022-11-10T00:57:39.501Z,95564.97
2022-11-10T01:00:06.534Z,95560.50
2022-11-10T01:02:33.021Z,95581.06
2022-11-10T01:04:59.500Z,95585.25
2022-11-10T01:07:25.961Z,95581.19
2022-11-10T01:09:52.582Z,95578.69
2022-11-10T01:12:19.464Z,95579.50
2022-11-10T01:14:47.831Z,95580.19
2022-11-10T01:17:14.332Z,95585.97
2022-11-10T01:19:42.037Z,95584.16
2022-11-10T01:22:08.532Z,95587.63
2022-11-10T01:24:35.424Z,95585.09
2022-11-10T01:27:04.824Z,95589.00
2022-11-10T01:29:33.260Z,95593.41
2022-11-10T01:31:59.721Z,95607.31
2022-11-10T01:34:26.237Z,95607.31
2022-11-10T01:36:52.798Z,95606.44
2022-11-10T01:39:19.374Z,95601.88
2022-11-10T01:41:45.905Z,95620.22
2022-11-10T01:44:14.466Z,95615.69
2022-11-10T01:46:40.925Z,95615.75
2022-11-10T01:49:07.727Z,95613.53
2022-11-10T01:51:56.856Z,95623.09
2022-11-10T01:54:30.023Z,95622.56
2022-11-10T01:56:59.703Z,95620.78
2022-11-10T01:59:28.982Z,95629.44
2022-11-10T02:02:03.299Z,95627.34
2022-11-10T02:04:30.548Z,95634.75
2022-11-10T02:06:57.409Z,95634.53
2022-11-10T02:09:23.915Z,95636.31
2022-11-10T02:11:52.308Z,95629.75
2022-11-10T02:14:18.827Z,95644.56
2022-11-10T02:16:45.306Z,95630.84
2022-11-10T02:19:18.455Z,95628.31
2022-11-10T02:21:44.912Z,95623.94
2022-11-10T02:24:11.981Z,95626.41
2022-11-10T02:26:44.135Z,95622.56
2022-11-10T02:29:10.634Z,95623.84
2022-11-10T02:31:37.423Z,95628.78
2022-11-10T02:34:03.940Z,95618.75
2022-11-10T02:36:30.683Z,95626.19
2022-11-10T02:38:57.213Z,95623.09
2022-11-10T02:41:23.764Z,95635.03
2022-11-10T02:43:51.218Z,95627.97
2022-11-10T02:46:18.092Z,95636.66
2022-11-10T02:48:44.707Z,95626.56
2022-11-10T02:51:11.296Z,95640.34
2022-11-10T02:53:37.840Z,95650.63
2022-11-10T02:56:05.526Z,95648.88
2022-11-10T02:58:32.414Z,95649.09
2022-11-10T03:00:58.992Z,95652.31
2022-11-10T03:03:25.577Z,95654.81
2022-11-10T03:05:52.148Z,95654.28
2022-11-10T03:08:18.617Z,95655.44
2022-11-10T03:10:45.340Z,95660.09
2022-11-10T03:13:11.816Z,95660.25
2022-11-10T03:15:38.422Z,95658.00
2022-11-10T03:18:05.302Z,95658.06
2022-11-10T03:20:31.860Z,95665.50
2022-11-10T03:23:05.207Z,95661.38
2022-11-10T03:25:31.724Z,95669.34
2022-11-10T03:27:58.371Z,95662.69
2022-11-10T03:30:24.877Z,95673.59
2022-11-10T03:32:51.451Z,95674.56
2022-11-10T03:35:17.980Z,95670.81
2022-11-10T03:37:44.549Z,95682.38
2022-11-10T03:40:12.416Z,95685.09
2022-11-10T03:42:42.901Z,95685.44
2022-11-10T03:45:10.494Z,95691.94
2022-11-10T03:47:37.060Z,95688.03
2022-11-10T03:50:04.332Z,95697.00
2022-11-10T03:52:30.782Z,95709.53
2022-11-10T03:55:02.966Z,95711.78
2022-11-10T03:57:29.909Z,95715.03
2022-11-10T03:59:59.252Z,95715.31
2022-11-10T04:02:25.772Z,95717.25
2022-11-10T04:04:52.312Z,95714.53
2022-11-10T04:07:18.827Z,95712.56
2022-11-10T04:09:45.564Z,95708.59
2022-11-10T04:12:12.123Z,95716.38
2022-11-10T04:14:41.032Z,95720.66
2022-11-10T04:17:10.595Z,95718.53
2022-11-10T04:19:37.237Z,95728.38
2022-11-10T04:22:03.746Z,95722.91
2022-11-10T04:24:30.233Z,95720.47
2022-11-10T04:26:57.232Z,95727.25
2022-11-10T04:29:23.822Z,95728.59
2022-11-10T04:31:50.373Z,95728.47
2022-11-10T04:34:16.815Z,95726.69
2022-11-10T04:36:43.999Z,95725.28
2022-11-10T04:39:10.945Z,95730.19
2022-11-10T04:41:37.824Z,95730.59
2022-11-10T04:44:04.829Z,95731.84
2022-11-10T04:46:34.445Z,95724.50
2022-11-10T04:49:01.403Z,95730.03
2022-11-10T04:51:33.607Z,95726.56
2022-11-10T04:54:00.290Z,95731.88
2022-11-10T04:56:27.634Z,95739.59
2022-11-10T04:58:54.512Z,95731.44
2022-11-10T05:01:24.674Z,95735.13
2022-11-10T05:03:51.548Z,95746.09
2022-11-10T05:06:18.281Z,95735.53
2022-11-10T05:08:45.843Z,95741.44
2022-11-10T05:11:12.596Z,95735.91
2022-11-10T05:13:39.341Z,95749.16
2022-11-10T05:16:06.075Z,95752.63
2022-11-10T05:18:32.598Z,95746.53
2022-11-10T05:20:59.050Z,95760.16
2022-11-10T05:23:25.696Z,95764.22
2022-11-10T05:25:52.300Z,95758.94
2022-11-10T05:28:19.099Z,95762.81
2022-11-10T05:30:45.786Z,95780.28
2022-11-10T05:33:12.282Z,95777.44
2022-11-10T05:35:38.960Z,95775.81
2022-11-10T05:38:05.589Z,95777.44
2022-11-10T05:40:32.684Z,95777.63
2022-11-10T05:42:59.619Z,95767.47
2022-11-10T05:45:28.236Z,95767.47
2022-11-10T05:47:54.919Z,95767.25
2022-11-10T05:50:23.093Z,95776.00
2022-11-10T05:52:52.052Z,95783.13
2022-11-10T05:55:21.502Z,95784.53
2022-11-10T05:57:49.337Z,95784.72
2022-11-10T06:00:18.109Z,95787.97
2022-11-10T06:02:44.678Z,95786.34
2022-11-10T06:05:12.183Z,95803.81
2022-11-10T06:07:38.889Z,95798.31
2022-11-10T06:10:05.794Z,95807.84
2022-11-10T06:12:32.543Z,95802.19
2022-11-10T06:14:59.152Z,95803.81
2022-11-10T06:17:26.025Z,95809.53
2022-11-10T06:19:52.542Z,95814.75
2022-11-10T06:22:19.055Z,95814.41
2022-11-10T06:24:45.545Z,95826.22
2022-11-10T06:27:12.108Z,95823.19
2022-11-10T06:29:41.163Z,95824.22
2022-11-10T06:32:07.651Z,95838.47
2022-11-10T06:34:34.130Z,95843.53
2022-11-10T06:37:00.578Z,95849.84
2022-11-10T06:39:27.025Z,95839.91
2022-11-10T06:41:53.676Z,95851.69
2022-11-10T06:44:20.200Z,95851.50
2022-11-10T06:46:46.717Z,95865.16
2022-11-10T06:49:13.175Z,95866.19
2022-11-10T06:51:39.643Z,95871.06
2022-11-10T06:54:09.228Z,95872.50
2022-11-10T06:56:35.715Z,95871.88
2022-11-10T06:59:02.243Z,95874.53
2022-11-10T07:01:28.813Z,95880.41
2022-11-10T07:04:18.098Z,95880.00
2022-11-10T07:06:42.121Z,95888.75
2022-11-10T07:09:08.759Z,95883.84
2022-11-10T07:11:35.233Z,95896.47
2022-11-10T07:14:01.718Z,95893.00
2022-11-10T07:16:30.892Z,95888.50
2022-11-10T07:18:57.430Z,95894.03
2022-11-10T07:21:23.930Z,95891.41
2022-11-10T07:23:50.678Z,95899.53
2022-11-10T07:26:17.137Z,95903.44
2022-11-10T07:28:43.693Z,95911.97
2022-11-10T07:31:10.314Z,95908.94
2022-11-10T07:33:36.747Z,95915.44
2022-11-10T07:36:04.278Z,95917.06
2022-11-10T07:38:30.805Z,95918.91
2022-11-10T07:40:57.275Z,95925.63
2022-11-10T07:43:25.138Z,95923.16
2022-11-10T07:45:52.943Z,95922.53
2022-11-10T07:48:19.720Z,95925.63
2022-11-10T07:50:52.420Z,95922.75
2022-11-10T07:53:20.656Z,95933.53
2022-11-10T07:55:47.519Z,95924.75
2022-11-10T07:58:16.498Z,95924.72
2022-11-10T08:00:44.404Z,95934.03
2022-11-10T08:03:19.769Z,95928.31
2022-11-10T08:05:46.883Z,95929.66
2022-11-10T08:08:14.124Z,95929.00
2022-11-10T08:10:41.474Z,95927.88
2022-11-10T08:13:10.407Z,95937.25
2022-11-10T08:15:37.190Z,95940.53
2022-11-10T08:18:15.541Z,95940.13
2022-11-10T08:20:44.405Z,95943.72
2022-11-10T08:23:11.117Z,95956.31
2022-11-10T08:25:37.885Z,95952.69
2022-11-10T08:28:07.708Z,95952.81
2022-11-10T08:30:35.313Z,95956.38
2022-11-10T08:33:02.733Z,95962.75
2022-11-10T08:35:31.651Z,95970.44
2022-11-10T08:37:58.197Z,95974.63
2022-11-10T08:40:25.557Z,95977.56
2022-11-10T08:43:02.189Z,95971.47
2022-11-10T08:45:28.994Z,95973.13
2022-11-10T08:48:06.143Z,95977.66
2022-11-10T08:50:32.948Z,95976.78
2022-11-10T08:53:04.022Z,95976.34
2022-11-10T08:55:30.621Z,95986.72
2022-11-10T08:58:01.687Z,95987.75
2022-11-10T09:00:29.341Z,95994.22
2022-11-10T09:02:56.971Z,95995.00
2022-11-10T09:05:23.745Z,96000.13
2022-11-10T09:07:50.676Z,95999.72
2022-11-10T09:10:17.387Z,96004.47
2022-11-10T09:12:43.885Z,96007.97
2022-11-10T09:15:11.277Z,96012.25
2022-11-10T09:17:41.653Z,96004.09
2022-11-10T09:20:12.040Z,96003.50
2022-11-10T09:22:38.916Z,96018.56
2022-11-10T09:25:05.583Z,96015.50
2022-11-10T09:27:35.592Z,96022.09
2022-11-10T09:30:02.241Z,96022.13
2022-11-10T09:32:28.713Z,96016.03
2022-11-10T09:34:55.175Z,96011.09
2022-11-10T09:37:21.678Z,96016.00
2022-11-10T09:39:54.579Z,96023.97
2022-11-10T09:42:27.537Z,96030.88
2022-11-10T09:44:56.396Z,96021.72
2022-11-10T09:47:56.827Z,96024.81
2022-11-10T09:50:29.884Z,96027.84
2022-11-10T09:52:58.387Z,96033.34
2022-11-10T09:55:37.703Z,96030.66
2022-11-10T09:58:04.587Z,96025.50
2022-11-10T10:00:33.870Z,96033.88
2022-11-10T10:03:05.040Z,96035.44
2022-11-10T10:05:53.622Z,96027.47
2022-11-10T10:08:46.403Z,96038.44
2022-11-10T10:11:27.049Z,96036.97
2022-11-10T10:14:14.115Z,96035.16
2022-11-10T10:16:48.597Z,96045.59
2022-11-10T10:19:33.564Z,96043.50
2022-11-10T10:22:35.189Z,96044.44
2022-11-10T10:25:04.055Z,96049.19
2022-11-10T10:27:31.933Z,96040.72
2022-11-10T10:29:58.509Z,96023.50
2022-11-10T10:32:26.513Z,96040.19
2022-11-10T10:34:53.006Z,96032.41
2022-11-10T10:37:22.543Z,96037.38
2022-11-10T10:39:51.054Z,96042.94
2022-11-10T10:42:29.344Z,96042.56
2022-11-10T10:45:16.612Z,96041.25
2022-11-10T10:47:43.596Z,96034.31
2022-11-10T10:50:16.521Z,96024.16
2022-11-10T10:52:43.010Z,96033.69
2022-11-10T10:55:12.785Z,96037.88
2022-11-10T10:57:50.756Z,96027.66
2022-11-10T11:00:23.725Z,96037.00
2022-11-10T11:03:14.135Z,96041.31
2022-11-10T11:05:40.734Z,96030.19
2022-11-10T11:08:17.461Z,96034.38
2022-11-10T11:10:45.917Z,96030.00
2022-11-10T11:13:13.186Z,96038.22
2022-11-10T11:15:39.697Z,96040.84
2022-11-10T11:18:13.743Z,96036.94
2022-11-10T11:20:52.472Z,96045.91
2022-11-10T11:23:28.984Z,96037.06
2022-11-10T11:26:01.294Z,96039.44
2022-11-10T11:28:27.780Z,96037.66
2022-11-10T11:31:08.891Z,96035.97
2022-11-10T11:33:58.251Z,96047.47
2022-11-10T11:36:53.969Z,96053.91
2022-11-10T11:39:20.575Z,96047.63
2022-11-10T11:42:25.430Z,96049.28
2022-11-10T11:45:04.315Z,96044.28
2022-11-10T11:47:44.495Z,96041.75
2022-11-10T11:50:30.058Z,96033.09
2022-11-10T11:53:34.243Z,96040.16
2022-11-10T11:56:31.045Z,96031.19
2022-11-10T11:59:08.873Z,96038.34
2022-11-10T12:01:46.357Z,96040.00
2022-11-10T12:04:41.594Z,96031.63
2022-11-10T12:07:14.150Z,96029.94
2022-11-10T12:09:47.271Z,96037.34
2022-11-10T12:12:13.663Z,96025.75
2022-11-10T12:15:15.833Z,96025.41
2022-11-10T12:18:07.143Z,96022.75
2022-11-10T12:21:18.615Z,96021.03
2022-11-10T12:24:22.556Z,96022.03
2022-11-10T12:26:49.304Z,96019.72
2022-11-10T12:29:34.607Z,96017.16
2022-11-10T12:32:12.030Z,96015.06
2022-11-10T12:34:42.030Z,96010.66
2022-11-10T12:37:15.744Z,96017.41
2022-11-10T12:39:50.215Z,96018.03
2022-11-10T12:42:22.410Z,96003.06
2022-11-10T12:44:57.140Z,96002.81
2022-11-10T12:47:27.344Z,95999.94
2022-11-10T12:49:56.719Z,96006.09
2022-11-10T12:52:37.435Z,96006.53
2022-11-10T12:55:04.368Z,96008.53
2022-11-10T12:57:31.529Z,96001.59
2022-11-10T13:00:01.991Z,96002.41
2022-11-10T13:02:39.382Z,96006.03
2022-11-10T13:05:24.459Z,96002.47
2022-11-10T13:07:51.931Z,96009.44
2022-11-10T13:10:18.328Z,96022.06
2022-11-10T13:13:06.228Z,96013.63
2022-11-10T13:15:35.729Z,96007.97
2022-11-10T13:18:02.228Z,96008.47
2022-11-10T13:20:49.584Z,96023.53
2022-11-10T13:23:27.523Z,96023.44
2022-11-10T13:25:57.900Z,96029.75
2022-11-10T13:28:46.251Z,96028.13
2022-11-10T13:31:27.723Z,96023.50
2022-11-10T13:34:11.010Z,96031.91
2022-11-10T13:36:45.171Z,96028.78
2022-11-10T13:39:20.921Z,96024.06
2022-11-10T13:41:54.092Z,96038.69
2022-11-10T13:44:37.901Z,96019.50
2022-11-10T13:47:31.148Z,96024.28
2022-11-10T13:50:17.563Z,96025.38
2022-11-10T13:52:46.948Z,96022.69
2022-11-10T13:55:38.832Z,96030.13
2022-11-10T13:58:09.125Z,96022.59
2022-11-10T14:00:36.069Z,96036.56
2022-11-10T14:03:06.989Z,96030.78
2022-11-10T14:05:33.583Z,96021.22
2022-11-10T14:08:09.196Z,96035.88
2022-11-10T14:10:43.356Z,96040.03
2022-11-10T14:13:48.764Z,96046.03
2022-11-10T14:16:21.919Z,96038.47
2022-11-10T14:19:26.934Z,96047.31
2022-11-10T14:21:58.215Z,96047.31
2022-11-10T14:24:28.813Z,96035.28
2022-11-10T14:26:58.918Z,96038.53
2022-11-10T14:29:28.447Z,96035.69
2022-11-10T14:31:57.719Z,96032.13
2022-11-10T14:34:24.891Z,96039.75
2022-11-10T14:36:56.609Z,96029.50
2022-11-10T14:39:29.123Z,96033.22
2022-11-10T14:41:55.792Z,96028.38
2022-11-10T14:44:27.252Z,96036.16
2022-11-10T14:46:53.932Z,96038.66
2022-11-10T14:49:24.357Z,96033.66
2022-11-10T14:51:55.909Z,96032.97
2022-11-10T14:54:25.464Z,96036.59
2022-11-10T14:56:52.707Z,96039.31
2022-11-10T14:59:20.480Z,96042.41
2022-11-10T15:01:56.281Z,96039.28
2022-11-10T15:04:27.050Z,96044.25
2022-11-10T15:06:54.701Z,96053.84
2022-11-10T15:09:30.050Z,96051.31
2022-11-10T15:12:02.605Z,96069.66
2022-11-10T15:14:35.070Z,96062.94
2022-11-10T15:17:12.846Z,96062.09
2022-11-10T15:19:52.886Z,96068.88
2022-11-10T15:22:22.907Z,96073.63
2022-11-10T15:24:49.710Z,96059.81
2022-11-10T15:27:45.110Z,96063.91
2022-11-10T15:30:22.658Z,96061.47
2022-11-10T15:32:49.749Z,96062.50
2022-11-10T15:35:22.054Z,96074.66
2022-11-10T15:38:04.211Z,96082.50
2022-11-10T15:40:43.990Z,96088.06
2022-11-10T15:43:16.473Z,96094.38
2022-11-10T15:45:44.065Z,96084.97
2022-11-10T15:48:15.491Z,96082.00
2022-11-10T15:50:44.475Z,96077.84
2022-11-10T15:53:31.999Z,96074.03
2022-11-10T15:55:58.580Z,96076.41
2022-11-10T15:58:27.407Z,96093.09
2022-11-10T16:00:55.634Z,96092.53
2022-11-10T16:03:23.267Z,96091.69
2022-11-10T16:05:49.842Z,96087.88
2022-11-10T16:08:18.625Z,96086.03
2022-11-10T16:10:50.451Z,96094.59
2022-11-10T16:13:24.014Z,96089.31
2022-11-10T16:15:51.003Z,96096.91
2022-11-10T16:18:20.089Z,96095.28
2022-11-10T16:20:47.770Z,96098.56
2022-11-10T16:23:14.549Z,96092.00
2022-11-10T16:25:41.193Z,96091.00
2022-11-10T16:28:11.118Z,96104.84
2022-11-10T16:30:38.196Z,96100.00
2022-11-10T16:33:04.770Z,96106.13
2022-11-10T16:35:31.321Z,96105.09
2022-11-10T16:37:57.888Z,96113.00
2022-11-10T16:40:24.579Z,96124.06
2022-11-10T16:42:51.132Z,96126.06
2022-11-10T16:45:22.576Z,96113.84
2022-11-10T16:47:51.739Z,96119.34
2022-11-10T16:50:36.907Z,96134.84
2022-11-10T16:53:06.061Z,96131.41
2022-11-10T16:55:33.269Z,96131.00
2022-11-10T16:57:59.980Z,96137.72
2022-11-10T17:00:26.507Z,96137.13
2022-11-10T17:02:57.227Z,96152.63
2022-11-10T17:05:23.718Z,96160.16
2022-11-10T17:07:52.897Z,96145.06
2022-11-10T17:10:20.366Z,96158.53
2022-11-10T17:12:47.003Z,96157.09
2022-11-10T17:15:15.135Z,96151.78
2022-11-10T17:17:44.089Z,96154.66
2022-11-10T17:20:17.983Z,96172.56
2022-11-10T17:22:44.634Z,96168.72
2022-11-10T17:25:33.449Z,96160.34
2022-11-10T17:28:00.326Z,96175.22
2022-11-10T17:30:26.820Z,96180.72
2022-11-10T17:33:08.728Z,96183.16
2022-11-10T17:35:51.002Z,96189.31
2022-11-10T17:38:22.427Z,96197.66
2022-11-10T17:40:49.537Z,96193.81
2022-11-10T17:43:16.274Z,96196.22
2022-11-10T17:45:42.743Z,96213.75
2022-11-10T17:48:09.569Z,96203.97
2022-11-10T17:50:37.480Z,96205.59
2022-11-10T17:53:12.860Z,96213.38
2022-11-10T17:55:39.850Z,96218.25
2022-11-10T17:58:07.783Z,96210.72
2022-11-10T18:00:34.722Z,96217.03
2022-11-10T18:03:01.435Z,96219.28
2022-11-10T18:05:28.140Z,96222.75
2022-11-10T18:07:54.747Z,96212.53
2022-11-10T18:10:21.363Z,96224.56
2022-11-10T18:12:48.958Z,96221.94
2022-11-10T18:15:16.915Z,96227.63
2022-11-10T18:17:43.581Z,96223.53
2022-11-10T18:20:11.271Z,96226.63
2022-11-10T18:22:38.625Z,96228.06
2022-11-10T18:25:08.899Z,96241.53
2022-11-10T18:27:35.783Z,96244.00
2022-11-10T18:30:03.878Z,96254.59
2022-11-10T18:32:30.643Z,96242.38
2022-11-10T18:34:57.183Z,96259.69
2022-11-10T18:37:23.738Z,96269.09
2022-11-10T18:39:50.258Z,96261.31
2022-11-10T18:42:17.217Z,96262.97
2022-11-10T18:44:43.707Z,96265.00
2022-11-10T18:47:12.121Z,96265.59
2022-11-10T18:49:38.689Z,96255.19
2022-11-10T18:52:05.142Z,96259.47
2022-11-10T18:54:31.863Z,96274.03
2022-11-10T18:56:58.665Z,96271.97
2022-11-10T18:59:25.246Z,96268.66
2022-11-10T19:01:52.948Z,96266.63
2022-11-10T19:04:23.549Z,96271.97
2022-11-10T19:06:50.148Z,96277.44
2022-11-10T19:09:16.769Z,96275.94
2022-11-10T19:11:43.267Z,96277.56
2022-11-10T19:14:09.769Z,96278.44
2022-11-10T19:16:36.273Z,96280.56
2022-11-10T19:19:02.825Z,96282.78
2022-11-10T19:21:30.248Z,96287.72
2022-11-10T19:23:59.807Z,96290.38
2022-11-10T19:26:29.938Z,96295.63
2022-11-10T19:28:56.646Z,96296.53
2022-11-10T19:31:23.869Z,96302.69
2022-11-10T19:33:53.039Z,96295.50
2022-11-10T19:36:21.679Z,96302.66
2022-11-10T19:38:48.235Z,96310.97
2022-11-10T19:41:26.641Z,96310.63
2022-11-10T19:43:53.533Z,96310.97
2022-11-10T19:46:36.698Z,96307.94
2022-11-10T19:49:03.838Z,96305.31
2022-11-10T19:51:31.539Z,96318.09
2022-11-10T19:54:04.687Z,96307.63
2022-11-10T19:56:32.427Z,96312.19
2022-11-10T19:59:01.265Z,96310.19
2022-11-10T20:01:27.799Z,96319.59
2022-11-10T20:03:54.481Z,96325.63
2022-11-10T20:06:22.595Z,96318.59
2022-11-10T20:08:49.849Z,96322.50
2022-11-10T20:11:24.001Z,96322.97
2022-11-10T20:13:54.934Z,96321.44
2022-11-10T20:16:22.850Z,96324.22
2022-11-10T20:18:51.930Z,96324.75
2022-11-10T20:21:22.558Z,96319.06
2022-11-10T20:23:56.105Z,96318.63
2022-11-10T20:26:23.727Z,96319.63
2022-11-10T20:28:50.199Z,96328.03
2022-11-10T20:31:22.530Z,96341.75
2022-11-10T20:33:49.819Z,96341.97
2022-11-10T20:36:20.707Z,96339.88
2022-11-10T20:38:50.978Z,96344.91
2022-11-10T20:41:21.140Z,96346.63
2022-11-10T20:43:48.011Z,96354.38
2022-11-10T20:46:33.173Z,96359.97
2022-11-10T20:49:34.007Z,96359.09
2022-11-10T20:52:00.449Z,96362.16
2022-11-10T20:54:27.639Z,96353.50
2022-11-10T20:56:54.288Z,96365.72
2022-11-10T20:59:20.931Z,96372.63
2022-11-10T21:01:47.940Z,96383.16
2022-11-10T21:04:14.652Z,96379.50
2022-11-10T21:06:42.387Z,96379.28
2022-11-10T21:09:09.243Z,96384.59
2022-11-10T21:11:39.132Z,96386.81
2022-11-10T21:14:05.839Z,96382.81
2022-11-10T21:16:32.308Z,96390.09
2022-11-10T21:18:58.746Z,96401.44
2022-11-10T21:21:27.385Z,96398.09
2022-11-10T21:23:53.934Z,96398.66
2022-11-10T21:29:07.043Z,96400.91
2022-11-10T21:31:33.904Z,96394.38
2022-11-10T21:34:03.405Z,96396.94
2022-11-10T21:36:29.958Z,96397.91
2022-11-10T21:39:07.892Z,96392.00
2022-11-10T21:41:37.352Z,96397.41
2022-11-10T21:44:03.987Z,96389.13
2022-11-10T21:46:32.298Z,96393.00
2022-11-10T21:49:03.138Z,96389.25
2022-11-10T21:51:33.479Z,96388.09
2022-11-10T21:54:00.244Z,96403.72
2022-11-10T21:56:29.889Z,96392.84
2022-11-10T21:58:57.652Z,96397.63
2022-11-10T22:01:24.187Z,96396.13
2022-11-10T22:03:51.667Z,96393.69
2022-11-10T22:06:18.681Z,96395.75
2022-11-10T22:08:46.464Z,96395.44
2022-11-10T22:11:21.307Z,96390.53
2022-11-10T22:13:47.919Z,96396.31
2022-11-10T22:16:22.365Z,96404.56
2022-11-10T22:18:48.847Z,96402.31
2022-11-10T22:21:15.371Z,96406.66
2022-11-10T22:23:41.825Z,96407.22
2022-11-10T22:26:08.346Z,96395.00
2022-11-10T22:28:34.922Z,96404.81
2022-11-10T22:31:02.680Z,96397.06
2022-11-10T22:33:29.261Z,96399.31
2022-11-10T22:35:56.217Z,96406.25
2022-11-10T22:38:24.690Z,96404.00
2022-11-10T22:40:51.140Z,96410.69
2022-11-10T22:43:17.754Z,96408.34
2022-11-10T22:45:44.892Z,96404.44
2022-11-10T22:48:11.364Z,96411.19
2022-11-10T22:50:37.927Z,96407.38
2022-11-10T22:53:04.465Z,96399.44
2022-11-10T22:55:30.973Z,96396.03
2022-11-10T22:57:57.471Z,96403.91
2022-11-10T23:00:23.923Z,96408.53
2022-11-10T23:02:52.257Z,96404.91
2022-11-10T23:05:18.712Z,96415.09
2022-11-10T23:07:45.147Z,96414.72
2022-11-10T23:10:11.586Z,96415.47
2022-11-10T23:12:38.053Z,96420.19
2022-11-10T23:15:04.659Z,96424.47
2022-11-10T23:17:31.260Z,96425.25
2022-11-10T23:19:57.724Z,96420.31
2022-11-10T23:22:24.196Z,96414.91
2022-11-10T23:24:55.751Z,96415.47
2022-11-10T23:27:23.859Z,96415.44
2022-11-10T23:29:50.304Z,96414.41
2022-11-10T23:32:16.760Z,96423.50
2022-11-10T23:34:43.326Z,96408.28
2022-11-10T23:37:09.795Z,96410.22
2022-11-10T23:39:36.297Z,96419.75
2022-11-10T23:42:02.773Z,96413.84
2022-11-10T23:44:29.232Z,96409.88
2022-11-10T23:46:55.699Z,96415.19
2022-11-10T23:49:22.142Z,96420.44
2022-11-10T23:51:48.594Z,96432.16
2022-11-10T23:54:15.738Z,96425.28
2022-11-10T23:56:42.726Z,96425.69
2022-11-10T23:59:09.511Z,96424.66
